sensor_id;sensor_type;location;lat;lon;timestamp;P1;durP1;ratioP1;P2;durP2;ratioP2
23404;SDS011;11875;49.356;2.718;2022-07-15T00:01:54;3.88;;;1.77;;
23404;SDS011;11875;49.356;2.718;2022-07-15T00:04:20;3.17;;;2.17;;
23404;SDS011;11875;49.356;2.718;2022-07-15T00:06:45;8.38;;;1.85;;
23404;SDS011;11875;49.356;2.718;2022-07-15T00:09:11;4.53;;;1.67;;
23404;SDS011;11875;49.356;2.718;2022-07-15T00:11:37;5.43;;;1.85;;
23404;SDS011;11875;49.356;2.718;2022-07-15T00:14:02;3.70;;;1.63;;
23404;SDS011;11875;49.356;2.718;2022-07-15T00:16:28;7.57;;;1.70;;
23404;SDS011;11875;49.356;2.718;2022-07-15T00:18:54;10.77;;;2.10;;
23404;SDS011;11875;49.356;2.718;2022-07-15T00:21:19;4.78;;;1.80;;
23404;SDS011;11875;49.356;2.718;2022-07-15T00:23:45;4.90;;;1.85;;
23404;SDS011;11875;49.356;2.718;2022-07-15T00:26:11;3.78;;;1.58;;
23404;SDS011;11875;49.356;2.718;2022-07-15T00:28:36;4.72;;;1.77;;
23404;SDS011;11875;49.356;2.718;2022-07-15T00:31:02;5.18;;;2.25;;
23404;SDS011;11875;49.356;2.718;2022-07-15T00:33:28;6.72;;;1.98;;
23404;SDS011;11875;49.356;2.718;2022-07-15T00:35:53;2.92;;;1.90;;
23404;SDS011;11875;49.356;2.718;2022-07-15T00:38:19;5.65;;;2.40;;
23404;SDS011;11875;49.356;2.718;2022-07-15T00:40:46;6.45;;;2.33;;
23404;SDS011;11875;49.356;2.718;2022-07-15T00:43:13;4.78;;;2.13;;
23404;SDS011;11875;49.356;2.718;2022-07-15T00:45:43;3.72;;;2.10;;
23404;SDS011;11875;49.356;2.718;2022-07-15T00:48:09;7.43;;;2.33;;
23404;SDS011;11875;49.356;2.718;2022-07-15T00:50:35;6.30;;;2.53;;
23404;SDS011;11875;49.356;2.718;2022-07-15T00:55:33;3.85;;;2.13;;
23404;SDS011;11875;49.356;2.718;2022-07-15T00:58:05;3.08;;;2.00;;
23404;SDS011;11875;49.356;2.718;2022-07-15T01:00:35;9.70;;;2.70;;
23404;SDS011;11875;49.356;2.718;2022-07-15T01:03:01;5.22;;;2.58;;
23404;SDS011;11875;49.356;2.718;2022-07-15T01:05:27;6.45;;;2.28;;
23404;SDS011;11875;49.356;2.718;2022-07-15T01:07:53;6.53;;;2.20;;
23404;SDS011;11875;49.356;2.718;2022-07-15T01:10:19;7.68;;;2.35;;
23404;SDS011;11875;49.356;2.718;2022-07-15T01:12:47;9.52;;;2.58;;
23404;SDS011;11875;49.356;2.718;2022-07-15T01:15:13;4.80;;;1.98;;
23404;SDS011;11875;49.356;2.718;2022-07-15T01:17:39;6.63;;;2.35;;
23404;SDS011;11875;49.356;2.718;2022-07-15T01:20:06;3.88;;;2.15;;
23404;SDS011;11875;49.356;2.718;2022-07-15T01:22:32;5.75;;;2.33;;
23404;SDS011;11875;49.356;2.718;2022-07-15T01:24:58;7.78;;;2.78;;
23404;SDS011;11875;49.356;2.718;2022-07-15T01:27:24;5.30;;;2.30;;
23404;SDS011;11875;49.356;2.718;2022-07-15T01:29:50;4.03;;;1.98;;
23404;SDS011;11875;49.356;2.718;2022-07-15T01:32:16;3.92;;;2.30;;
23404;SDS011;11875;49.356;2.718;2022-07-15T01:34:42;3.38;;;2.45;;
23404;SDS011;11875;49.356;2.718;2022-07-15T01:37:07;12.55;;;2.05;;
23404;SDS011;11875;49.356;2.718;2022-07-15T01:39:33;3.63;;;1.95;;
23404;SDS011;11875;49.356;2.718;2022-07-15T01:41:59;2.95;;;2.25;;
23404;SDS011;11875;49.356;2.718;2022-07-15T01:44:24;4.40;;;2.42;;
23404;SDS011;11875;49.356;2.718;2022-07-15T01:46:50;4.55;;;2.08;;
23404;SDS011;11875;49.356;2.718;2022-07-15T01:49:15;6.00;;;2.28;;
23404;SDS011;11875;49.356;2.718;2022-07-15T01:51:47;6.32;;;2.15;;
23404;SDS011;11875;49.356;2.718;2022-07-15T01:54:13;3.83;;;2.08;;
23404;SDS011;11875;49.356;2.718;2022-07-15T01:56:39;2.90;;;2.22;;
23404;SDS011;11875;49.356;2.718;2022-07-15T01:59:05;6.65;;;2.35;;
23404;SDS011;11875;49.356;2.718;2022-07-15T02:01:30;4.97;;;2.30;;
23404;SDS011;11875;49.356;2.718;2022-07-15T02:03:56;11.63;;;3.38;;
23404;SDS011;11875;49.356;2.718;2022-07-15T02:06:22;5.10;;;2.55;;
23404;SDS011;11875;49.356;2.718;2022-07-15T02:08:48;6.38;;;2.95;;
23404;SDS011;11875;49.356;2.718;2022-07-15T02:11:13;5.80;;;2.60;;
23404;SDS011;11875;49.356;2.718;2022-07-15T02:13:39;3.83;;;2.30;;
23404;SDS011;11875;49.356;2.718;2022-07-15T02:16:05;5.18;;;2.50;;
23404;SDS011;11875;49.356;2.718;2022-07-15T02:18:31;4.30;;;2.20;;
23404;SDS011;11875;49.356;2.718;2022-07-15T02:20:56;6.03;;;2.47;;
23404;SDS011;11875;49.356;2.718;2022-07-15T02:23:22;6.78;;;2.60;;
23404;SDS011;11875;49.356;2.718;2022-07-15T02:25:48;4.72;;;2.40;;
23404;SDS011;11875;49.356;2.718;2022-07-15T02:28:14;5.43;;;2.42;;
23404;SDS011;11875;49.356;2.718;2022-07-15T02:30:40;6.68;;;2.50;;
23404;SDS011;11875;49.356;2.718;2022-07-15T02:33:07;5.93;;;2.58;;
23404;SDS011;11875;49.356;2.718;2022-07-15T02:35:33;6.30;;;2.72;;
23404;SDS011;11875;49.356;2.718;2022-07-15T02:37:59;6.05;;;2.40;;
23404;SDS011;11875;49.356;2.718;2022-07-15T02:40:25;5.07;;;2.72;;
23404;SDS011;11875;49.356;2.718;2022-07-15T02:42:52;5.20;;;2.80;;
23404;SDS011;11875;49.356;2.718;2022-07-15T02:45:23;6.40;;;2.97;;
23404;SDS011;11875;49.356;2.718;2022-07-15T02:47:50;6.22;;;2.60;;
23404;SDS011;11875;49.356;2.718;2022-07-15T02:50:15;5.40;;;2.95;;
23404;SDS011;11875;49.356;2.718;2022-07-15T02:52:42;5.95;;;3.00;;
23404;SDS011;11875;49.356;2.718;2022-07-15T02:55:08;11.35;;;2.75;;
23404;SDS011;11875;49.356;2.718;2022-07-15T02:57:35;6.07;;;2.60;;
23404;SDS011;11875;49.356;2.718;2022-07-15T03:00:01;4.70;;;2.80;;
23404;SDS011;11875;49.356;2.718;2022-07-15T03:02:28;3.95;;;2.45;;
23404;SDS011;11875;49.356;2.718;2022-07-15T03:04:55;5.93;;;2.65;;
23404;SDS011;11875;49.356;2.718;2022-07-15T03:07:21;4.15;;;2.80;;
23404;SDS011;11875;49.356;2.718;2022-07-15T03:09:47;7.38;;;2.60;;
23404;SDS011;11875;49.356;2.718;2022-07-15T03:12:12;8.88;;;3.30;;
23404;SDS011;11875;49.356;2.718;2022-07-15T03:14:38;3.35;;;2.65;;
23404;SDS011;11875;49.356;2.718;2022-07-15T03:17:06;6.38;;;2.80;;
23404;SDS011;11875;49.356;2.718;2022-07-15T03:19:32;7.50;;;2.80;;
23404;SDS011;11875;49.356;2.718;2022-07-15T03:21:58;6.22;;;3.13;;
23404;SDS011;11875;49.356;2.718;2022-07-15T03:24:24;5.88;;;2.90;;
23404;SDS011;11875;49.356;2.718;2022-07-15T03:26:50;4.05;;;2.90;;
23404;SDS011;11875;49.356;2.718;2022-07-15T03:29:15;8.30;;;3.05;;
23404;SDS011;11875;49.356;2.718;2022-07-15T03:31:42;5.38;;;2.58;;
23404;SDS011;11875;49.356;2.718;2022-07-15T03:34:08;4.50;;;2.83;;
23404;SDS011;11875;49.356;2.718;2022-07-15T03:36:35;6.57;;;2.60;;
23404;SDS011;11875;49.356;2.718;2022-07-15T03:39:02;6.45;;;2.65;;
23404;SDS011;11875;49.356;2.718;2022-07-15T03:41:31;8.00;;;2.83;;
23404;SDS011;11875;49.356;2.718;2022-07-15T03:43:57;6.68;;;3.00;;
23404;SDS011;11875;49.356;2.718;2022-07-15T03:46:24;5.28;;;2.65;;
23404;SDS011;11875;49.356;2.718;2022-07-15T03:48:49;4.10;;;3.05;;
23404;SDS011;11875;49.356;2.718;2022-07-15T03:51:15;5.18;;;2.85;;
23404;SDS011;11875;49.356;2.718;2022-07-15T03:53:41;3.88;;;2.88;;
23404;SDS011;11875;49.356;2.718;2022-07-15T03:56:07;3.42;;;2.65;;
23404;SDS011;11875;49.356;2.718;2022-07-15T03:58:32;8.43;;;2.88;;
23404;SDS011;11875;49.356;2.718;2022-07-15T04:00:58;5.70;;;3.33;;
23404;SDS011;11875;49.356;2.718;2022-07-15T04:03:24;6.60;;;2.95;;
23404;SDS011;11875;49.356;2.718;2022-07-15T04:05:50;5.47;;;2.28;;
23404;SDS011;11875;49.356;2.718;2022-07-15T04:08:15;6.43;;;3.08;;
23404;SDS011;11875;49.356;2.718;2022-07-15T04:10:41;5.45;;;2.88;;
23404;SDS011;11875;49.356;2.718;2022-07-15T04:13:07;4.70;;;3.00;;
23404;SDS011;11875;49.356;2.718;2022-07-15T04:15:32;7.68;;;3.13;;
23404;SDS011;11875;49.356;2.718;2022-07-15T04:17:58;7.25;;;2.83;;
23404;SDS011;11875;49.356;2.718;2022-07-15T04:20:24;11.73;;;3.28;;
23404;SDS011;11875;49.356;2.718;2022-07-15T04:22:50;4.28;;;2.78;;
23404;SDS011;11875;49.356;2.718;2022-07-15T04:25:17;7.25;;;2.85;;
23404;SDS011;11875;49.356;2.718;2022-07-15T04:27:44;6.68;;;2.67;;
23404;SDS011;11875;49.356;2.718;2022-07-15T04:30:10;8.55;;;2.92;;
23404;SDS011;11875;49.356;2.718;2022-07-15T04:32:37;7.28;;;2.83;;
23404;SDS011;11875;49.356;2.718;2022-07-15T04:35:03;8.63;;;3.22;;
23404;SDS011;11875;49.356;2.718;2022-07-15T04:37:29;5.55;;;3.40;;
23404;SDS011;11875;49.356;2.718;2022-07-15T04:39:55;6.60;;;3.42;;
23404;SDS011;11875;49.356;2.718;2022-07-15T04:42:21;6.50;;;3.30;;
23404;SDS011;11875;49.356;2.718;2022-07-15T04:44:47;7.85;;;3.25;;
23404;SDS011;11875;49.356;2.718;2022-07-15T04:47:13;11.18;;;3.03;;
23404;SDS011;11875;49.356;2.718;2022-07-15T04:49:39;9.07;;;3.00;;
23404;SDS011;11875;49.356;2.718;2022-07-15T04:52:23;6.20;;;3.58;;
23404;SDS011;11875;49.356;2.718;2022-07-15T04:54:53;6.97;;;3.13;;
23404;SDS011;11875;49.356;2.718;2022-07-15T04:57:19;10.23;;;3.22;;
23404;SDS011;11875;49.356;2.718;2022-07-15T04:59:45;7.35;;;2.95;;
23404;SDS011;11875;49.356;2.718;2022-07-15T05:02:11;9.52;;;3.80;;
23404;SDS011;11875;49.356;2.718;2022-07-15T05:04:37;7.35;;;3.13;;
23404;SDS011;11875;49.356;2.718;2022-07-15T05:07:04;7.88;;;3.20;;
23404;SDS011;11875;49.356;2.718;2022-07-15T05:09:30;4.55;;;3.13;;
23404;SDS011;11875;49.356;2.718;2022-07-15T05:11:55;5.35;;;3.22;;
23404;SDS011;11875;49.356;2.718;2022-07-15T05:14:21;9.82;;;3.47;;
23404;SDS011;11875;49.356;2.718;2022-07-15T05:16:47;6.10;;;3.30;;
23404;SDS011;11875;49.356;2.718;2022-07-15T05:19:12;4.57;;;3.10;;
23404;SDS011;11875;49.356;2.718;2022-07-15T05:21:38;7.57;;;3.67;;
23404;SDS011;11875;49.356;2.718;2022-07-15T05:24:03;8.32;;;3.33;;
23404;SDS011;11875;49.356;2.718;2022-07-15T05:26:29;7.43;;;3.72;;
23404;SDS011;11875;49.356;2.718;2022-07-15T05:28:55;10.68;;;3.70;;
23404;SDS011;11875;49.356;2.718;2022-07-15T05:31:20;7.25;;;3.30;;
23404;SDS011;11875;49.356;2.718;2022-07-15T05:33:47;10.13;;;3.58;;
23404;SDS011;11875;49.356;2.718;2022-07-15T05:36:13;9.40;;;3.83;;
23404;SDS011;11875;49.356;2.718;2022-07-15T05:38:39;11.20;;;3.47;;
23404;SDS011;11875;49.356;2.718;2022-07-15T05:41:06;9.82;;;3.95;;
23404;SDS011;11875;49.356;2.718;2022-07-15T05:43:32;7.00;;;3.10;;
23404;SDS011;11875;49.356;2.718;2022-07-15T05:45:57;5.63;;;3.38;;
23404;SDS011;11875;49.356;2.718;2022-07-15T05:48:23;12.13;;;3.50;;
23404;SDS011;11875;49.356;2.718;2022-07-15T05:50:48;6.95;;;3.30;;
23404;SDS011;11875;49.356;2.718;2022-07-15T05:53:14;7.75;;;3.55;;
23404;SDS011;11875;49.356;2.718;2022-07-15T05:55:40;11.20;;;3.35;;
23404;SDS011;11875;49.356;2.718;2022-07-15T05:58:07;15.73;;;3.90;;
23404;SDS011;11875;49.356;2.718;2022-07-15T06:00:33;7.43;;;3.00;;
23404;SDS011;11875;49.356;2.718;2022-07-15T06:02:59;8.27;;;3.42;;
23404;SDS011;11875;49.356;2.718;2022-07-15T06:05:25;5.85;;;3.33;;
23404;SDS011;11875;49.356;2.718;2022-07-15T06:07:51;9.82;;;3.70;;
23404;SDS011;11875;49.356;2.718;2022-07-15T06:10:17;8.80;;;3.50;;
23404;SDS011;11875;49.356;2.718;2022-07-15T06:12:42;8.32;;;3.47;;
23404;SDS011;11875;49.356;2.718;2022-07-15T06:15:08;6.50;;;3.15;;
23404;SDS011;11875;49.356;2.718;2022-07-15T06:17:34;10.30;;;4.43;;
23404;SDS011;11875;49.356;2.718;2022-07-15T06:20:00;6.38;;;3.15;;
23404;SDS011;11875;49.356;2.718;2022-07-15T06:22:25;5.35;;;3.58;;
23404;SDS011;11875;49.356;2.718;2022-07-15T06:24:51;7.80;;;3.72;;
23404;SDS011;11875;49.356;2.718;2022-07-15T06:27:17;10.95;;;3.38;;
23404;SDS011;11875;49.356;2.718;2022-07-15T06:29:43;7.28;;;3.30;;
23404;SDS011;11875;49.356;2.718;2022-07-15T06:32:08;10.95;;;3.50;;
23404;SDS011;11875;49.356;2.718;2022-07-15T06:34:36;8.55;;;3.72;;
23404;SDS011;11875;49.356;2.718;2022-07-15T06:37:02;7.95;;;3.53;;
23404;SDS011;11875;49.356;2.718;2022-07-15T06:39:28;6.85;;;3.70;;
23404;SDS011;11875;49.356;2.718;2022-07-15T06:41:53;62.65;;;5.40;;
23404;SDS011;11875;49.356;2.718;2022-07-15T06:44:19;17.25;;;3.90;;
23404;SDS011;11875;49.356;2.718;2022-07-15T06:46:45;11.93;;;3.70;;
23404;SDS011;11875;49.356;2.718;2022-07-15T06:49:10;13.30;;;4.07;;
23404;SDS011;11875;49.356;2.718;2022-07-15T06:51:36;10.02;;;4.00;;
23404;SDS011;11875;49.356;2.718;2022-07-15T06:54:01;7.63;;;3.28;;
23404;SDS011;11875;49.356;2.718;2022-07-15T06:56:27;7.07;;;3.28;;
23404;SDS011;11875;49.356;2.718;2022-07-15T06:58:54;4.75;;;2.85;;
23404;SDS011;11875;49.356;2.718;2022-07-15T07:01:20;9.85;;;3.42;;
23404;SDS011;11875;49.356;2.718;2022-07-15T07:03:45;12.65;;;3.17;;
23404;SDS011;11875;49.356;2.718;2022-07-15T07:06:11;14.85;;;3.65;;
23404;SDS011;11875;49.356;2.718;2022-07-15T07:08:36;7.90;;;2.80;;
23404;SDS011;11875;49.356;2.718;2022-07-15T07:11:02;5.32;;;2.15;;
23404;SDS011;11875;49.356;2.718;2022-07-15T07:13:28;4.10;;;2.13;;
23404;SDS011;11875;49.356;2.718;2022-07-15T07:15:53;9.15;;;2.65;;
23404;SDS011;11875;49.356;2.718;2022-07-15T07:18:19;4.60;;;2.05;;
23404;SDS011;11875;49.356;2.718;2022-07-15T07:20:45;3.95;;;1.88;;
23404;SDS011;11875;49.356;2.718;2022-07-15T07:23:10;3.92;;;2.28;;
23404;SDS011;11875;49.356;2.718;2022-07-15T07:25:36;3.47;;;2.10;;
23404;SDS011;11875;49.356;2.718;2022-07-15T07:28:02;3.65;;;1.77;;
23404;SDS011;11875;49.356;2.718;2022-07-15T07:30:31;4.45;;;2.08;;
23404;SDS011;11875;49.356;2.718;2022-07-15T07:32:57;3.70;;;1.90;;
23404;SDS011;11875;49.356;2.718;2022-07-15T07:35:22;7.80;;;2.25;;
23404;SDS011;11875;49.356;2.718;2022-07-15T07:37:49;7.72;;;1.90;;
23404;SDS011;11875;49.356;2.718;2022-07-15T07:40:15;4.22;;;2.08;;
23404;SDS011;11875;49.356;2.718;2022-07-15T07:42:42;6.95;;;1.95;;
23404;SDS011;11875;49.356;2.718;2022-07-15T07:45:08;6.50;;;2.83;;
23404;SDS011;11875;49.356;2.718;2022-07-15T07:47:35;2.42;;;1.60;;
23404;SDS011;11875;49.356;2.718;2022-07-15T07:50:05;2.50;;;1.67;;
23404;SDS011;11875;49.356;2.718;2022-07-15T07:52:31;5.80;;;1.88;;
23404;SDS011;11875;49.356;2.718;2022-07-15T07:54:57;4.93;;;1.48;;
23404;SDS011;11875;49.356;2.718;2022-07-15T07:57:23;2.65;;;1.70;;
23404;SDS011;11875;49.356;2.718;2022-07-15T07:59:48;2.47;;;1.60;;
23404;SDS011;11875;49.356;2.718;2022-07-15T08:02:14;1.75;;;1.20;;
23404;SDS011;11875;49.356;2.718;2022-07-15T08:04:40;16.30;;;2.00;;
23404;SDS011;11875;49.356;2.718;2022-07-15T08:07:06;2.33;;;1.40;;
23404;SDS011;11875;49.356;2.718;2022-07-15T08:09:33;2.38;;;1.50;;
23404;SDS011;11875;49.356;2.718;2022-07-15T08:11:58;4.68;;;1.60;;
23404;SDS011;11875;49.356;2.718;2022-07-15T08:14:24;5.75;;;1.65;;
23404;SDS011;11875;49.356;2.718;2022-07-15T08:16:50;2.67;;;1.48;;
23404;SDS011;11875;49.356;2.718;2022-07-15T08:19:16;2.40;;;1.52;;
23404;SDS011;11875;49.356;2.718;2022-07-15T08:21:44;2.03;;;1.23;;
23404;SDS011;11875;49.356;2.718;2022-07-15T08:24:11;3.47;;;1.42;;
23404;SDS011;11875;49.356;2.718;2022-07-15T08:26:37;5.15;;;1.20;;
23404;SDS011;11875;49.356;2.718;2022-07-15T08:29:03;1.35;;;1.10;;
23404;SDS011;11875;49.356;2.718;2022-07-15T08:31:29;4.30;;;1.30;;
23404;SDS011;11875;49.356;2.718;2022-07-15T08:33:59;3.85;;;1.30;;
23404;SDS011;11875;49.356;2.718;2022-07-15T08:36:25;2.78;;;1.35;;
23404;SDS011;11875;49.356;2.718;2022-07-15T08:38:51;2.13;;;1.20;;
23404;SDS011;11875;49.356;2.718;2022-07-15T08:41:17;2.13;;;1.25;;
23404;SDS011;11875;49.356;2.718;2022-07-15T08:43:42;3.08;;;1.25;;
23404;SDS011;11875;49.356;2.718;2022-07-15T08:46:08;1.02;;;0.80;;
23404;SDS011;11875;49.356;2.718;2022-07-15T08:48:35;2.00;;;0.90;;
23404;SDS011;11875;49.356;2.718;2022-07-15T08:51:03;3.10;;;0.90;;
23404;SDS011;11875;49.356;2.718;2022-07-15T08:53:32;5.22;;;1.38;;
23404;SDS011;11875;49.356;2.718;2022-07-15T08:55:59;5.47;;;1.85;;
23404;SDS011;11875;49.356;2.718;2022-07-15T08:58:25;2.92;;;1.13;;
23404;SDS011;11875;49.356;2.718;2022-07-15T09:00:51;1.60;;;1.20;;
23404;SDS011;11875;49.356;2.718;2022-07-15T09:03:17;4.85;;;1.58;;
23404;SDS011;11875;49.356;2.718;2022-07-15T09:05:42;1.45;;;0.98;;
23404;SDS011;11875;49.356;2.718;2022-07-15T09:08:12;1.95;;;1.23;;
23404;SDS011;11875;49.356;2.718;2022-07-15T09:15:57;2.00;;;1.13;;
23404;SDS011;11875;49.356;2.718;2022-07-15T09:18:26;2.95;;;1.10;;
23404;SDS011;11875;49.356;2.718;2022-07-15T09:20:54;2.70;;;1.30;;
23404;SDS011;11875;49.356;2.718;2022-07-15T09:23:22;3.00;;;1.25;;
23404;SDS011;11875;49.356;2.718;2022-07-15T09:25:57;2.92;;;1.55;;
23404;SDS011;11875;49.356;2.718;2022-07-15T09:28:35;2.55;;;0.95;;
23404;SDS011;11875;49.356;2.718;2022-07-15T09:31:02;2.50;;;1.20;;
23404;SDS011;11875;49.356;2.718;2022-07-15T09:33:46;3.22;;;1.33;;
23404;SDS011;11875;49.356;2.718;2022-07-15T09:36:23;4.95;;;1.40;;
23404;SDS011;11875;49.356;2.718;2022-07-15T09:38:57;6.90;;;1.63;;
23404;SDS011;11875;49.356;2.718;2022-07-15T09:41:30;5.55;;;1.50;;
23404;SDS011;11875;49.356;2.718;2022-07-15T09:44:04;3.72;;;1.33;;
23404;SDS011;11875;49.356;2.718;2022-07-15T09:46:42;1.88;;;1.08;;
23404;SDS011;11875;49.356;2.718;2022-07-15T09:49:13;4.30;;;1.42;;
23404;SDS011;11875;49.356;2.718;2022-07-15T09:51:47;4.32;;;1.00;;
23404;SDS011;11875;49.356;2.718;2022-07-15T09:54:16;1.90;;;1.08;;
23404;SDS011;11875;49.356;2.718;2022-07-15T09:56:44;2.35;;;1.02;;
23404;SDS011;11875;49.356;2.718;2022-07-15T09:59:13;3.55;;;1.27;;
23404;SDS011;11875;49.356;2.718;2022-07-15T10:01:40;3.17;;;1.10;;
23404;SDS011;11875;49.356;2.718;2022-07-15T10:04:08;3.70;;;1.00;;
23404;SDS011;11875;49.356;2.718;2022-07-15T10:06:34;3.85;;;1.20;;
23404;SDS011;11875;49.356;2.718;2022-07-15T10:09:03;2.58;;;0.90;;
23404;SDS011;11875;49.356;2.718;2022-07-15T10:11:31;3.95;;;0.85;;
23404;SDS011;11875;49.356;2.718;2022-07-15T10:14:01;1.67;;;0.90;;
23404;SDS011;11875;49.356;2.718;2022-07-15T10:16:55;2.33;;;1.00;;
23404;SDS011;11875;49.356;2.718;2022-07-15T10:22:18;3.30;;;1.75;;
23404;SDS011;11875;49.356;2.718;2022-07-15T10:25:02;1.45;;;0.70;;
23404;SDS011;11875;49.356;2.718;2022-07-15T10:27:44;3.08;;;2.20;;
23404;SDS011;11875;49.356;2.718;2022-07-15T10:30:12;4.88;;;0.93;;
23404;SDS011;11875;49.356;2.718;2022-07-15T10:35:34;5.00;;;0.90;;
23404;SDS011;11875;49.356;2.718;2022-07-15T10:38:19;2.30;;;1.08;;
23404;SDS011;11875;49.356;2.718;2022-07-15T10:40:58;1.20;;;0.80;;
23404;SDS011;11875;49.356;2.718;2022-07-15T10:43:42;2.97;;;0.80;;
23404;SDS011;11875;49.356;2.718;2022-07-15T10:51:08;1.77;;;0.80;;
23404;SDS011;11875;49.356;2.718;2022-07-15T10:53:53;2.47;;;1.10;;
23404;SDS011;11875;49.356;2.718;2022-07-15T10:56:34;5.63;;;0.88;;
23404;SDS011;11875;49.356;2.718;2022-07-15T11:01:36;1.88;;;1.00;;
23404;SDS011;11875;49.356;2.718;2022-07-15T11:04:19;2.83;;;0.93;;
23404;SDS011;11875;49.356;2.718;2022-07-15T11:09:56;1.05;;;0.77;;
23404;SDS011;11875;49.356;2.718;2022-07-15T11:15:05;3.72;;;0.95;;
23404;SDS011;11875;49.356;2.718;2022-07-15T11:17:39;2.17;;;0.90;;
23404;SDS011;11875;49.356;2.718;2022-07-15T11:20:08;0.98;;;0.80;;
23404;SDS011;11875;49.356;2.718;2022-07-15T11:22:40;4.47;;;0.90;;
23404;SDS011;11875;49.356;2.718;2022-07-15T11:25:06;0.82;;;0.80;;
23404;SDS011;11875;49.356;2.718;2022-07-15T11:27:41;0.90;;;0.63;;
23404;SDS011;11875;49.356;2.718;2022-07-15T11:30:07;0.95;;;0.70;;
23404;SDS011;11875;49.356;2.718;2022-07-15T11:32:33;1.10;;;0.85;;
23404;SDS011;11875;49.356;2.718;2022-07-15T11:35:00;1.77;;;1.00;;
23404;SDS011;11875;49.356;2.718;2022-07-15T11:37:28;3.53;;;1.10;;
23404;SDS011;11875;49.356;2.718;2022-07-15T11:40:10;8.98;;;1.08;;
23404;SDS011;11875;49.356;2.718;2022-07-15T11:42:59;0.70;;;0.70;;
23404;SDS011;11875;49.356;2.718;2022-07-15T11:45:44;2.25;;;1.10;;
23404;SDS011;11875;49.356;2.718;2022-07-15T11:48:11;2.45;;;0.85;;
23404;SDS011;11875;49.356;2.718;2022-07-15T11:50:41;1.48;;;0.82;;
23404;SDS011;11875;49.356;2.718;2022-07-15T11:53:17;2.35;;;0.80;;
23404;SDS011;11875;49.356;2.718;2022-07-15T11:55:50;4.18;;;0.80;;
23404;SDS011;11875;49.356;2.718;2022-07-15T11:58:24;1.52;;;1.02;;
23404;SDS011;11875;49.356;2.718;2022-07-15T12:00:54;2.72;;;0.80;;
23404;SDS011;11875;49.356;2.718;2022-07-15T12:03:20;2.42;;;0.80;;
23404;SDS011;11875;49.356;2.718;2022-07-15T12:06:01;2.20;;;0.60;;
23404;SDS011;11875;49.356;2.718;2022-07-15T12:08:33;1.17;;;1.00;;
23404;SDS011;11875;49.356;2.718;2022-07-15T12:11:00;2.45;;;0.90;;
23404;SDS011;11875;49.356;2.718;2022-07-15T12:13:25;1.05;;;0.70;;
23404;SDS011;11875;49.356;2.718;2022-07-15T12:15:53;0.80;;;0.80;;
23404;SDS011;11875;49.356;2.718;2022-07-15T12:18:19;4.88;;;0.98;;
23404;SDS011;11875;49.356;2.718;2022-07-15T12:20:45;4.75;;;1.10;;
23404;SDS011;11875;49.356;2.718;2022-07-15T12:23:11;3.38;;;1.10;;
23404;SDS011;11875;49.356;2.718;2022-07-15T12:25:37;1.80;;;0.65;;
23404;SDS011;11875;49.356;2.718;2022-07-15T12:28:03;1.05;;;0.80;;
23404;SDS011;11875;49.356;2.718;2022-07-15T12:30:34;1.50;;;0.80;;
23404;SDS011;11875;49.356;2.718;2022-07-15T12:33:14;2.28;;;0.90;;
23404;SDS011;11875;49.356;2.718;2022-07-15T12:35:39;1.25;;;1.00;;
23404;SDS011;11875;49.356;2.718;2022-07-15T12:38:05;2.33;;;0.80;;
23404;SDS011;11875;49.356;2.718;2022-07-15T12:40:31;5.25;;;0.82;;
23404;SDS011;11875;49.356;2.718;2022-07-15T12:42:56;3.42;;;0.80;;
23404;SDS011;11875;49.356;2.718;2022-07-15T12:48:05;2.13;;;0.77;;
23404;SDS011;11875;49.356;2.718;2022-07-15T12:50:36;2.55;;;0.90;;
23404;SDS011;11875;49.356;2.718;2022-07-15T12:53:22;1.17;;;0.80;;
23404;SDS011;11875;49.356;2.718;2022-07-15T12:55:52;4.13;;;0.93;;
23404;SDS011;11875;49.356;2.718;2022-07-15T12:58:28;3.05;;;1.00;;
23404;SDS011;11875;49.356;2.718;2022-07-15T13:01:06;3.10;;;0.90;;
23404;SDS011;11875;49.356;2.718;2022-07-15T13:03:36;2.72;;;0.68;;
23404;SDS011;11875;49.356;2.718;2022-07-15T13:06:02;1.10;;;0.80;;
23404;SDS011;11875;49.356;2.718;2022-07-15T13:08:30;5.10;;;1.10;;
23404;SDS011;11875;49.356;2.718;2022-07-15T13:10:58;0.90;;;0.70;;
23404;SDS011;11875;49.356;2.718;2022-07-15T13:13:26;2.20;;;0.80;;
23404;SDS011;11875;49.356;2.718;2022-07-15T13:15:54;2.95;;;0.80;;
23404;SDS011;11875;49.356;2.718;2022-07-15T13:18:19;5.18;;;0.85;;
23404;SDS011;11875;49.356;2.718;2022-07-15T13:20:46;2.53;;;0.88;;
23404;SDS011;11875;49.356;2.718;2022-07-15T13:23:12;2.42;;;0.80;;
23404;SDS011;11875;49.356;2.718;2022-07-15T13:25:38;2.55;;;0.98;;
23404;SDS011;11875;49.356;2.718;2022-07-15T13:28:06;2.47;;;0.88;;
23404;SDS011;11875;49.356;2.718;2022-07-15T13:30:32;1.25;;;0.70;;
23404;SDS011;11875;49.356;2.718;2022-07-15T13:32:59;2.15;;;0.90;;
23404;SDS011;11875;49.356;2.718;2022-07-15T13:35:25;3.92;;;1.20;;
23404;SDS011;11875;49.356;2.718;2022-07-15T13:37:50;2.03;;;0.90;;
23404;SDS011;11875;49.356;2.718;2022-07-15T13:40:16;4.32;;;0.93;;
23404;SDS011;11875;49.356;2.718;2022-07-15T13:42:42;4.93;;;1.00;;
23404;SDS011;11875;49.356;2.718;2022-07-15T13:45:09;2.40;;;1.10;;
23404;SDS011;11875;49.356;2.718;2022-07-15T13:47:36;2.45;;;0.88;;
23404;SDS011;11875;49.356;2.718;2022-07-15T13:50:03;2.17;;;1.05;;
23404;SDS011;11875;49.356;2.718;2022-07-15T13:52:49;3.15;;;0.90;;
23404;SDS011;11875;49.356;2.718;2022-07-15T13:55:17;1.35;;;0.88;;
23404;SDS011;11875;49.356;2.718;2022-07-15T13:57:43;1.30;;;0.90;;
23404;SDS011;11875;49.356;2.718;2022-07-15T14:00:10;2.65;;;1.00;;
23404;SDS011;11875;49.356;2.718;2022-07-15T14:02:41;1.00;;;0.70;;
23404;SDS011;11875;49.356;2.718;2022-07-15T14:05:08;1.92;;;0.93;;
23404;SDS011;11875;49.356;2.718;2022-07-15T14:07:35;2.03;;;1.00;;
23404;SDS011;11875;49.356;2.718;2022-07-15T14:10:01;1.10;;;0.80;;
23404;SDS011;11875;49.356;2.718;2022-07-15T14:12:28;1.33;;;0.80;;
23404;SDS011;11875;49.356;2.718;2022-07-15T14:14:54;4.07;;;1.15;;
23404;SDS011;11875;49.356;2.718;2022-07-15T14:17:19;1.27;;;0.73;;
23404;SDS011;11875;49.356;2.718;2022-07-15T14:19:45;3.03;;;0.90;;
23404;SDS011;11875;49.356;2.718;2022-07-15T14:22:10;3.15;;;1.00;;
23404;SDS011;11875;49.356;2.718;2022-07-15T14:24:36;3.58;;;0.88;;
23404;SDS011;11875;49.356;2.718;2022-07-15T14:27:02;1.33;;;0.75;;
23404;SDS011;11875;49.356;2.718;2022-07-15T14:29:28;4.20;;;1.10;;
23404;SDS011;11875;49.356;2.718;2022-07-15T14:31:54;1.52;;;0.85;;
23404;SDS011;11875;49.356;2.718;2022-07-15T14:34:19;2.00;;;0.95;;
23404;SDS011;11875;49.356;2.718;2022-07-15T14:36:45;2.80;;;1.20;;
23404;SDS011;11875;49.356;2.718;2022-07-15T14:39:10;2.30;;;0.85;;
23404;SDS011;11875;49.356;2.718;2022-07-15T14:41:36;6.18;;;1.02;;
23404;SDS011;11875;49.356;2.718;2022-07-15T14:44:02;3.83;;;0.98;;
23404;SDS011;11875;49.356;2.718;2022-07-15T14:46:28;2.88;;;0.90;;
23404;SDS011;11875;49.356;2.718;2022-07-15T14:48:54;5.72;;;1.10;;
23404;SDS011;11875;49.356;2.718;2022-07-15T14:51:19;1.17;;;0.73;;
23404;SDS011;11875;49.356;2.718;2022-07-15T14:53:45;1.58;;;1.00;;
23404;SDS011;11875;49.356;2.718;2022-07-15T14:56:11;2.85;;;0.80;;
23404;SDS011;11875;49.356;2.718;2022-07-15T14:58:36;4.63;;;1.10;;
23404;SDS011;11875;49.356;2.718;2022-07-15T15:01:02;4.10;;;1.30;;
23404;SDS011;11875;49.356;2.718;2022-07-15T15:03:28;0.80;;;0.80;;
23404;SDS011;11875;49.356;2.718;2022-07-15T15:05:54;1.55;;;0.98;;
23404;SDS011;11875;49.356;2.718;2022-07-15T15:08:21;1.75;;;1.17;;
23404;SDS011;11875;49.356;2.718;2022-07-15T15:10:47;3.22;;;1.17;;
23404;SDS011;11875;49.356;2.718;2022-07-15T15:13:12;1.80;;;0.88;;
23404;SDS011;11875;49.356;2.718;2022-07-15T15:15:38;1.08;;;0.90;;
23404;SDS011;11875;49.356;2.718;2022-07-15T15:18:03;3.83;;;1.25;;
23404;SDS011;11875;49.356;2.718;2022-07-15T15:20:29;3.75;;;1.30;;